Time;durP1;ratioP1;P1;durP2;ratioP2;P2;SDS_P1;SDS_P2;PMS_P1;PMS_P2;Temp;Humidity;BMP_temperature;BMP_pressure;BME280_temperature;BME280_humidity;BME280_pressure;Samples;Min_cycle;Max_cycle;Signal;HPM_P1;HPM_P2
2023/08/28 04:02:32;;;;;;;10.73;7.97;;;;;;;24.53;76.45;99590.84;5600134;31;244658;-57
2023/08/28 04:05:37;;;;;;;9.25;8.20;;;;;;;24.53;76.45;99590.84;5582436;32;33356;-57
2023/08/28 04:08:40;;;;;;;9.77;8.23;;;;;;;24.06;77.43;99592.78;5583678;31;35133;-57
2023/08/28 04:11:42;;;;;;;9.20;7.93;;;;;;;23.99;82.01;99587.31;5583375;32;34304;-57
2023/08/28 04:14:47;;;;;;;13.62;8.18;;;;;;;24.08;78.76;99597.91;5583445;32;33285;-57
2023/08/28 04:17:49;;;;;;;12.52;8.45;;;;;;;24.06;78.05;99601.00;5583536;31;33583;-57
2023/08/28 04:20:51;;;;;;;8.90;7.53;;;;;;;24.02;80.15;99599.44;5583357;31;34344;-57
2023/08/28 04:23:54;;;;;;;10.43;8.88;;;;;;;24.00;78.06;99597.09;5583339;31;34319;-57
2023/08/28 04:26:56;;;;;;;10.35;8.52;;;;;;;24.08;82.01;99593.19;5583439;31;33327;-57
2023/08/28 04:29:59;;;;;;;10.65;8.70;;;;;;;24.15;78.44;99603.38;5573598;32;33478;-57
2023/08/28 04:33:01;;;;;;;11.27;8.32;;;;;;;24.04;78.54;99608.03;5563740;32;33597;-57
2023/08/28 04:36:04;;;;;;;10.88;9.00;;;;;;;23.99;78.03;99601.00;5563267;32;33572;-57
2023/08/28 04:39:06;;;;;;;11.73;9.38;;;;;;;24.00;83.14;99593.56;5563585;32;33730;-57
2023/08/28 04:42:14;;;;;;;9.63;8.43;;;;;;;24.01;81.63;99601.41;5563512;32;33446;-57
2023/08/28 04:45:17;;;;;;;11.60;9.23;;;;;;;24.10;78.87;99592.78;5563740;32;33372;-57
2023/08/28 04:48:19;;;;;;;10.80;8.65;;;;;;;23.92;83.08;99579.88;5563580;32;34317;-57
2023/08/28 04:51:21;;;;;;;13.43;9.20;;;;;;;23.93;79.01;99580.66;5563565;32;34369;-57
2023/08/28 04:54:24;;;;;;;11.65;8.35;;;;;;;23.94;80.42;99576.78;5563339;32;33685;-57
2023/08/28 04:57:27;;;;;;;11.18;8.18;;;;;;;23.99;80.97;99573.63;5563284;32;34830;-57
2023/08/28 05:00:29;;;;;;;11.60;8.30;;;;;;;24.05;78.59;99572.06;5563308;32;34069;-57
2023/08/28 05:03:32;;;;;;;8.55;7.43;;;;;;;24.13;78.37;99559.16;5562978;32;33542;-58
2023/08/28 05:06:34;;;;;;;10.80;7.90;;;;;;;24.17;77.58;99564.63;5562877;32;33233;-57
2023/08/28 05:09:37;;;;;;;9.07;8.00;;;;;;;24.30;75.71;99563.84;5563385;32;34531;-57
2023/08/28 05:12:39;;;;;;;9.90;7.72;;;;;;;24.38;77.20;99557.19;5555520;32;33154;-57
2023/08/28 05:15:43;;;;;;;8.90;8.00;;;;;;;24.43;76.41;99552.50;5549975;32;33662;-57
2023/08/28 05:18:46;;;;;;;9.25;7.70;;;;;;;24.54;82.88;99547.81;5549989;32;33718;-57
2023/08/28 05:21:48;;;;;;;8.90;8.00;;;;;;;24.59;76.51;99548.16;5550152;32;34405;-57
2023/08/28 05:24:51;;;;;;;12.45;7.87;;;;;;;24.73;78.37;99544.59;5550477;32;33657;-57
2023/08/28 05:27:53;;;;;;;11.25;8.00;;;;;;;24.88;75.12;99541.84;5550122;32;33780;-56
2023/08/28 05:30:58;;;;;;;11.45;7.45;;;;;;;24.84;73.95;99541.84;5549634;32;34301;-57
2023/08/28 05:34:00;;;;;;;12.32;7.95;;;;;;;24.84;76.22;99545.38;5560202;32;33611;-57
2023/08/28 05:37:03;;;;;;;10.18;8.15;;;;;;;24.88;74.43;99547.31;5560033;32;34335;-57
2023/08/28 05:40:06;;;;;;;13.27;8.13;;;;;;;24.96;76.27;99557.84;5549378;32;33730;-57
2023/08/28 05:43:11;;;;;;;11.45;8.15;;;;;;;25.12;72.85;99560.16;5549651;32;33437;-57
2023/08/28 05:46:13;;;;;;;16.58;9.60;;;;;;;25.16;73.26;99568.38;5549758;32;33262;-57
2023/08/28 05:49:17;;;;;;;27.87;9.73;;;;;;;25.26;74.82;99562.84;5549837;32;33506;-57
2023/08/28 05:52:20;;;;;;;11.27;8.18;;;;;;;25.28;76.70;99560.47;5548866;32;32092;-57
2023/08/28 05:55:23;;;;;;;13.43;8.10;;;;;;;25.35;78.50;99553.41;5549882;32;33911;-57
2023/08/28 05:58:25;;;;;;;19.25;8.77;;;;;;;25.39;76.10;99554.94;5549391;32;33708;-57
2023/08/28 06:01:28;;;;;;;20.85;8.60;;;;;;;25.46;73.65;99546.69;5553071;32;33602;-57
2023/08/28 06:04:31;;;;;;;9.20;8.13;;;;;;;25.57;76.27;99538.38;5564924;32;33696;-57
2023/08/28 06:07:34;;;;;;;8.93;7.60;;;;;;;25.61;76.14;99527.38;5564765;32;33725;-57
2023/08/28 06:10:38;;;;;;;12.45;7.70;;;;;;;25.64;73.04;99534.81;5566896;32;32125;-57
2023/08/28 06:13:41;;;;;;;12.65;8.32;;;;;;;25.55;75.10;99530.53;5563878;32;32892;-57
2023/08/28 06:16:44;;;;;;;14.43;8.77;;;;;;;25.62;74.34;99537.94;5558322;32;31897;-57
2023/08/28 06:19:46;;;;;;;15.43;9.57;;;;;;;25.68;74.69;99546.53;5565618;32;34182;-57
2023/08/28 06:22:48;;;;;;;13.32;9.00;;;;;;;25.71;75.55;99535.53;5566128;32;32394;-57
2023/08/28 06:25:51;;;;;;;11.82;9.10;;;;;;;25.77;73.21;99533.91;5567075;32;34303;-57
2023/08/28 06:28:53;;;;;;;14.15;9.48;;;;;;;25.82;70.43;99532.72;5568473;31;33993;-57
2023/08/28 06:31:58;;;;;;;16.90;9.02;;;;;;;25.68;71.50;99528.09;5568811;32;34274;-57
2023/08/28 06:35:01;;;;;;;13.20;8.27;;;;;;;25.73;70.15;99527.69;5568845;32;33601;-57
2023/08/28 06:38:03;;;;;;;15.45;9.25;;;;;;;25.67;70.94;99526.53;5566421;32;33608;-57
2023/08/28 06:41:06;;;;;;;10.50;8.55;;;;;;;25.78;71.14;99532.72;5549421;32;33178;-57
2023/08/28 06:44:08;;;;;;;11.20;8.57;;;;;;;25.74;69.23;99534.72;5564313;32;33179;-57
2023/08/28 06:47:10;;;;;;;14.52;9.38;;;;;;;25.78;72.43;99537.44;5567511;32;34352;-57
2023/08/28 06:50:12;;;;;;;13.88;9.05;;;;;;;25.87;72.56;99524.06;5555352;32;34208;-57
2023/08/28 06:53:15;;;;;;;11.27;9.80;;;;;;;25.94;69.71;99513.03;5563428;32;33694;-57
2023/08/28 06:56:19;;;;;;;13.32;9.75;;;;;;;25.99;73.43;99515.34;5568875;32;34287;-57
2023/08/28 06:59:21;;;;;;;14.68;10.57;;;;;;;26.02;69.26;99500.78;5567013;32;33636;-57
2023/08/28 07:02:25;;;;;;;13.62;9.77;;;;;;;26.11;71.39;99499.53;5564287;32;34267;-57
2023/08/28 07:05:28;;;;;;;17.57;8.93;;;;;;;26.11;69.93;99492.06;5564813;32;33270;-57
2023/08/28 07:08:30;;;;;;;12.13;9.90;;;;;;;26.14;69.57;99495.97;5567166;32;34869;-57
2023/08/28 07:11:33;;;;;;;16.17;10.40;;;;;;;26.00;69.09;99499.66;5566762;32;33728;-57
2023/08/28 07:14:38;;;;;;;12.05;10.30;;;;;;;26.02;70.37;99500.78;5567612;32;34365;-57
2023/08/28 07:17:41;;;;;;;13.55;9.98;;;;;;;26.15;71.44;99495.56;5567301;32;33766;-57
2023/08/28 07:20:44;;;;;;;18.15;11.15;;;;;;;26.30;72.24;99495.44;5561932;32;34373;-57
2023/08/28 07:23:46;;;;;;;14.00;10.25;;;;;;;26.35;70.42;99495.75;5551594;32;33941;-57
2023/08/28 07:26:50;;;;;;;14.93;10.93;;;;;;;26.39;69.69;99479.22;5548615;32;34742;-57
2023/08/28 07:29:53;;;;;;;15.63;10.70;;;;;;;26.40;69.71;99476.09;5548528;32;33432;-57
2023/08/28 07:32:55;;;;;;;18.55;11.07;;;;;;;26.50;69.23;99466.19;5557678;32;33569;-57
2023/08/28 07:35:57;;;;;;;20.25;11.20;;;;;;;26.46;69.10;99463.47;5567867;32;33629;-58
2023/08/28 07:38:59;;;;;;;17.95;11.32;;;;;;;26.55;69.70;99465.72;5567495;32;34166;-57
2023/08/28 07:42:02;;;;;;;17.58;11.77;;;;;;;26.55;68.54;99468.47;5567479;32;33316;-58
2023/08/28 07:45:05;;;;;;;23.58;12.10;;;;;;;26.57;69.85;99468.09;5567159;32;34287;-58
2023/08/28 07:48:08;;;;;;;15.10;11.50;;;;;;;26.52;68.44;99476.75;5555253;32;33526;-58
2023/08/28 07:51:10;;;;;;;25.33;11.75;;;;;;;26.56;68.66;99474.78;5548515;32;34400;-59
2023/08/28 07:54:13;;;;;;;20.45;12.52;;;;;;;26.73;67.93;99482.03;5548144;32;33240;-57
2023/08/28 07:57:15;;;;;;;14.90;11.75;;;;;;;26.76;66.50;99483.97;5554338;32;33568;-58
2023/08/28 08:00:20;;;;;;;16.10;11.82;;;;;;;26.76;68.37;99488.69;5566236;32;33671;-57
2023/08/28 08:03:24;;;;;;;15.70;12.00;;;;;;;26.74;67.98;99494.56;5558372;32;33638;-57
2023/08/28 08:06:27;;;;;;;13.85;12.20;;;;;;;26.93;66.77;99482.94;5558168;32;34367;-57
2023/08/28 08:09:30;;;;;;;21.65;12.15;;;;;;;26.99;66.37;99477.78;5563354;32;33773;-57
2023/08/28 08:12:32;;;;;;;17.52;11.88;;;;;;;27.00;67.64;99476.56;5567550;32;34328;-57
2023/08/28 08:15:37;;;;;;;18.60;12.48;;;;;;;27.04;68.21;99474.53;5562752;32;34270;-57
2023/08/28 08:18:39;;;;;;;22.40;12.55;;;;;;;27.08;67.05;99478.00;5547960;32;34253;-57
2023/08/28 08:21:41;;;;;;;16.67;12.98;;;;;;;27.09;67.57;99463.09;5558133;32;33648;-57
2023/08/28 08:24:44;;;;;;;18.27;13.05;;;;;;;27.10;66.90;99455.59;5566557;32;33558;-57
2023/08/28 08:27:47;;;;;;;30.05;12.70;;;;;;;27.16;66.83;99456.75;5561182;32;33794;-57
2023/08/28 08:30:50;;;;;;;19.83;13.35;;;;;;;27.13;66.57;99450.09;5557330;31;34430;-57
2023/08/28 08:33:52;;;;;;;18.30;12.35;;;;;;;27.15;66.56;99438.66;5557838;32;34059;-58
2023/08/28 08:36:54;;;;;;;17.20;12.77;;;;;;;27.20;66.82;99434.66;5557028;32;33395;-57
2023/08/28 08:39:57;;;;;;;29.17;13.73;;;;;;;27.29;66.98;99421.19;5561848;32;34277;-57
2023/08/28 08:42:59;;;;;;;21.77;13.40;;;;;;;27.44;65.91;99422.50;5566215;32;34308;-57
2023/08/28 08:46:07;;;;;;;19.50;12.55;;;;;;;27.40;66.76;99416.28;5559840;32;33522;-57
2023/08/28 08:49:12;;;;;;;24.35;13.13;;;;;;;27.45;65.24;99413.06;5567211;32;33657;-57
2023/08/28 08:52:18;;;;;;;19.15;13.00;;;;;;;27.52;65.96;99409.41;5568580;32;33524;-57
2023/08/28 08:55:39;;;;;;;26.23;14.68;;;;;;;27.68;63.58;99412.25;5569866;32;33185;-57
2023/08/28 08:58:43;;;;;;;23.67;12.43;;;;;;;27.63;65.08;99418.25;5561799;32;33706;-57
2023/08/28 09:01:46;;;;;;;16.85;11.70;;;;;;;27.76;64.81;99418.44;5558120;32;34489;-58
2023/08/28 09:04:49;;;;;;;27.33;12.32;;;;;;;27.79;63.35;99415.66;5558848;32;33691;-57
2023/08/28 09:07:53;;;;;;;24.92;11.98;;;;;;;27.92;63.16;99407.56;5568499;32;32433;-57
2023/08/28 09:11:00;;;;;;;17.65;10.73;;;;;;;27.96;62.77;99407.47;5567903;32;34008;-57
2023/08/28 09:14:04;;;;;;;24.80;11.20;;;;;;;28.08;61.37;99410.41;5560572;32;33706;-57
2023/08/28 09:17:07;;;;;;;25.92;10.10;;;;;;;28.15;61.09;99408.72;5564503;32;34312;-57
2023/08/28 09:20:21;;;;;;;16.65;10.70;;;;;;;28.28;59.39;99415.91;5563769;32;33737;-57
2023/08/28 09:23:31;;;;;;;26.80;10.52;;;;;;;28.34;58.93;99416.19;5551100;32;33336;-57
2023/08/28 09:26:36;;;;;;;28.08;10.70;;;;;;;28.28;59.58;99413.16;5562903;32;33679;-57
2023/08/28 09:29:39;;;;;;;51.83;11.60;;;;;;;28.30;59.83;99399.72;5569156;32;33819;-57
2023/08/28 09:32:45;;;;;;;24.50;10.93;;;;;;;28.38;59.32;99402.31;5567950;32;33735;-57
2023/08/28 09:35:48;;;;;;;17.48;9.70;;;;;;;28.36;59.41;99402.75;5554065;32;33797;-57
2023/08/28 09:38:51;;;;;;;19.17;10.48;;;;;;;28.39;60.00;99399.19;5565550;32;34369;-57
2023/08/28 09:41:54;;;;;;;15.18;9.52;;;;;;;28.52;59.50;99399.31;5556834;32;32550;-58
2023/08/28 09:44:57;;;;;;;16.98;10.32;;;;;;;28.52;58.37;99394.56;5557378;32;34120;-57
2023/08/28 09:48:04;;;;;;;16.10;9.88;;;;;;;28.55;57.71;99387.44;5564318;32;33523;-57
2023/08/28 09:51:06;;;;;;;30.92;11.57;;;;;;;28.56;58.53;99375.97;5563152;32;33808;-57
2023/08/28 09:54:10;;;;;;;69.93;14.52;;;;;;;28.61;59.52;99373.91;5563651;32;33668;-57
2023/08/28 09:57:15;;;;;;;27.27;11.35;;;;;;;28.62;58.76;99381.78;5566812;32;34361;-57
2023/08/28 10:00:18;;;;;;;12.55;10.00;;;;;;;28.74;57.48;99378.34;5568016;32;34345;-58
2023/08/28 10:03:23;;;;;;;16.90;11.15;;;;;;;28.76;58.56;99377.91;5560008;32;33710;-57
2023/08/28 10:06:25;;;;;;;20.88;10.57;;;;;;;28.79;57.32;99366.81;5566192;32;34196;-57
2023/08/28 10:09:29;;;;;;;16.40;10.73;;;;;;;28.89;58.78;99367.00;5560980;32;33665;-57
2023/08/28 10:12:33;;;;;;;17.52;10.75;;;;;;;28.98;56.44;99354.16;5567789;32;33591;-58
2023/08/28 10:15:48;;;;;;;15.02;9.80;;;;;;;28.90;57.28;99350.00;5568392;32;33803;-57
2023/08/28 10:19:18;;;;;;;19.80;10.20;;;;;;;29.00;55.20;99337.97;5560624;32;33683;-57
2023/08/28 10:22:22;;;;;;;19.08;9.93;;;;;;;29.10;54.43;99338.13;5555237;32;33639;-58
2023/08/28 10:25:25;;;;;;;111.12;21.77;;;;;;;29.08;56.32;99335.81;5548825;32;33354;-57
2023/08/28 10:28:29;;;;;;;46.75;12.85;;;;;;;29.05;56.49;99333.94;5563891;32;33696;-57
2023/08/28 10:31:32;;;;;;;19.52;10.20;;;;;;;29.11;56.36;99334.19;5568637;32;33628;-58
2023/08/28 10:34:38;;;;;;;38.13;12.30;;;;;;;29.20;54.88;99324.06;5564380;32;33654;-57
2023/08/28 10:37:42;;;;;;;19.80;9.88;;;;;;;29.23;54.10;99314.16;5565675;32;33649;-57
2023/08/28 10:40:48;;;;;;;17.03;9.57;;;;;;;29.27;54.64;99306.56;5565209;32;33616;-58
2023/08/28 10:43:51;;;;;;;15.98;10.05;;;;;;;29.43;53.10;99305.75;5568421;32;33642;-57
2023/08/28 10:46:55;;;;;;;19.62;9.43;;;;;;;29.34;53.80;99302.84;5567715;32;33836;-57
2023/08/28 10:49:57;;;;;;;16.40;9.43;;;;;;;29.57;53.61;99297.13;5558020;32;33735;-57
2023/08/28 10:53:00;;;;;;;16.65;9.50;;;;;;;29.60;53.10;99304.53;5549074;32;33602;-57
2023/08/28 10:56:02;;;;;;;14.82;9.43;;;;;;;29.57;51.94;99297.13;5548926;32;33616;-57
2023/08/28 10:59:24;;;;;;;14.98;9.20;;;;;;;29.73;51.84;99299.06;5552608;32;33752;-58
2023/08/28 11:03:06;;;;;;;15.82;9.50;;;;;;;29.70;51.68;99300.72;5564305;31;32784;-57
2023/08/28 11:06:43;;;;;;;13.15;9.18;;;;;;;29.87;51.12;99301.44;5567540;32;33205;-57
2023/08/28 11:09:46;;;;;;;174.05;17.15;;;;;;;29.76;51.29;99295.44;5563214;31;33397;-57
2023/08/28 11:12:59;;;;;;;21.42;10.07;;;;;;;29.84;51.50;99296.03;5567906;32;33657;-58
2023/08/28 11:16:03;;;;;;;64.97;14.57;;;;;;;29.91;51.33;99291.06;5568106;32;35313;-57
2023/08/28 11:19:07;;;;;;;60.30;14.50;;;;;;;29.92;51.52;99289.06;5568433;32;33639;-57
2023/08/28 11:22:09;;;;;;;14.57;9.00;;;;;;;29.93;51.21;99285.09;5567833;32;33390;-57
2023/08/28 11:25:13;;;;;;;11.00;9.15;;;;;;;29.95;50.85;99279.91;5568350;32;34495;-57
2023/08/28 11:28:26;;;;;;;67.15;14.50;;;;;;;29.93;50.68;99271.28;5554286;32;34449;-58
2023/08/28 11:31:33;;;;;;;11.12;9.25;;;;;;;29.96;52.42;99273.94;5562205;32;33736;-57
2023/08/28 11:34:36;;;;;;;14.18;9.18;;;;;;;29.88;50.99;99275.38;5568097;32;33598;-57
2023/08/28 11:37:40;;;;;;;20.88;9.98;;;;;;;29.93;51.05;99283.13;5568421;32;34429;-57
2023/08/28 11:40:43;;;;;;;18.00;9.23;;;;;;;30.04;51.03;99271.75;5566921;32;33896;-58
2023/08/28 11:43:45;;;;;;;31.70;10.38;;;;;;;30.14;48.84;99264.34;5568207;32;34037;-57
2023/08/28 11:46:47;;;;;;;20.60;10.02;;;;;;;30.15;49.94;99263.13;5567467;32;33783;-58
2023/08/28 11:49:51;;;;;;;22.27;8.98;;;;;;;30.14;50.54;99256.06;5568022;32;34323;-57
2023/08/28 11:52:54;;;;;;;19.27;8.82;;;;;;;30.33;49.61;99255.13;5567181;32;33732;-58
2023/08/28 11:55:58;;;;;;;19.37;9.30;;;;;;;30.32;49.64;99258.31;5567675;32;33700;-57
2023/08/28 11:59:00;;;;;;;178.85;23.45;;;;;;;30.41;49.07;99256.44;5562260;32;33779;-57
2023/08/28 12:02:04;;;;;;;13.18;8.55;;;;;;;30.48;49.25;99243.59;5557214;32;33694;-57
2023/08/28 12:05:08;;;;;;;13.13;9.25;;;;;;;30.50;49.09;99243.91;5548402;32;34397;-57
2023/08/28 12:08:11;;;;;;;17.45;8.80;;;;;;;30.41;49.41;99239.06;5548220;32;33638;-58
2023/08/28 12:11:14;;;;;;;16.23;8.65;;;;;;;30.58;48.41;99240.50;5549872;32;34440;-57
2023/08/28 12:14:17;;;;;;;18.27;9.25;;;;;;;30.52;48.83;99238.72;5562998;32;34048;-58
2023/08/28 12:17:22;;;;;;;16.02;7.93;;;;;;;30.66;47.90;99235.50;5567490;32;35023;-57
2023/08/28 12:20:24;;;;;;;30.65;9.10;;;;;;;30.64;47.68;99218.59;5567423;32;34315;-58
2023/08/28 12:23:27;;;;;;;18.90;9.00;;;;;;;30.58;47.58;99214.84;5567999;32;33239;-58
2023/08/28 12:26:32;;;;;;;13.55;8.50;;;;;;;30.56;48.31;99203.44;5570101;32;33709;-58
2023/08/28 12:29:34;;;;;;;16.50;8.02;;;;;;;30.58;49.18;99201.00;5567592;32;33705;-59
2023/08/28 12:32:37;;;;;;;24.90;9.98;;;;;;;30.60;48.09;99187.50;5567954;32;33667;-57
2023/08/28 12:35:41;;;;;;;15.82;7.78;;;;;;;30.65;48.40;99181.41;5570200;32;33744;-58
2023/08/28 12:38:48;;;;;;;21.67;8.68;;;;;;;30.66;47.38;99177.41;5570227;32;33551;-59
2023/08/28 12:41:53;;;;;;;19.00;8.48;;;;;;;30.82;47.84;99173.75;5570366;32;33636;-58
2023/08/28 12:44:56;;;;;;;19.83;7.87;;;;;;;30.86;45.29;99164.13;5570010;32;33695;-57
2023/08/28 12:47:59;;;;;;;15.30;7.90;;;;;;;30.85;46.48;99162.56;5570392;32;33366;-58
2023/08/28 12:51:01;;;;;;;16.27;7.78;;;;;;;30.87;46.63;99162.13;5569765;32;33824;-57
2023/08/28 12:54:05;;;;;;;13.18;7.20;;;;;;;30.96;45.58;99153.13;5570257;32;33685;-58
2023/08/28 12:57:10;;;;;;;190.52;24.98;;;;;;;31.18;44.60;99151.12;5568697;32;33613;-57
2023/08/28 13:00:13;;;;;;;51.47;11.43;;;;;;;31.13;44.51;99146.97;5569269;32;33757;-58
2023/08/28 13:03:15;;;;;;;12.63;8.10;;;;;;;31.10;45.21;99147.09;5570278;32;33731;-57
2023/08/28 13:06:18;;;;;;;36.03;9.20;;;;;;;31.18;45.22;99145.59;5570491;32;33600;-57
2023/08/28 13:09:22;;;;;;;13.20;7.60;;;;;;;31.35;44.72;99146.97;5570376;32;33674;-58
2023/08/28 13:12:24;;;;;;;13.30;7.30;;;;;;;31.38;44.88;99127.91;5570366;32;33660;-57
2023/08/28 13:15:26;;;;;;;20.62;8.13;;;;;;;31.49;43.86;99131.03;5570291;32;34477;-57
2023/08/28 13:18:29;;;;;;;13.85;7.12;;;;;;;31.30;44.67;99119.09;5570329;32;33664;-58
2023/08/28 13:21:31;;;;;;;13.45;7.55;;;;;;;31.34;43.34;99128.06;5570277;32;33754;-57
2023/08/28 13:24:33;;;;;;;12.70;7.22;;;;;;;31.41;44.49;99125.00;5570179;32;33688;-58
2023/08/28 13:27:45;;;;;;;17.17;7.43;;;;;;;31.52;42.33;99119.06;5570198;32;33670;-58
2023/08/28 13:30:48;;;;;;;19.52;12.05;;;;;;;31.52;41.88;99097.69;5570152;32;33661;-57
2023/08/28 13:33:50;;;;;;;21.50;7.32;;;;;;;31.48;42.02;99105.34;5569764;32;33586;-58
2023/08/28 13:36:53;;;;;;;22.05;6.80;;;;;;;31.66;40.76;99101.91;5569988;32;34317;-57
2023/08/28 13:39:55;;;;;;;17.05;7.93;;;;;;;31.58;40.32;99095.84;5570047;32;34392;-58
2023/08/28 13:43:02;;;;;;;37.80;8.48;;;;;;;31.70;39.74;99087.94;5570121;32;33303;-58
2023/08/28 13:46:05;;;;;;;17.70;6.78;;;;;;;31.76;40.36;99083.34;5569961;32;33674;-58
2023/08/28 13:49:07;;;;;;;12.75;6.37;;;;;;;31.75;39.91;99077.00;5570104;32;34368;-58
2023/08/28 13:52:09;;;;;;;30.92;8.75;;;;;;;31.56;40.14;99081.72;5569862;32;34536;-58
2023/08/28 13:55:14;;;;;;;15.43;6.37;;;;;;;31.64;40.81;99084.19;5569981;32;33562;-58
2023/08/28 13:58:19;;;;;;;15.93;6.75;;;;;;;31.56;40.06;99075.41;5569864;32;34320;-58
2023/08/28 14:01:22;;;;;;;70.32;11.82;;;;;;;31.71;39.79;99072.84;5569867;32;33594;-58
2023/08/28 14:04:24;;;;;;;1706.80;278.17;;;;;;;31.65;39.89;99064.34;5569703;32;33801;-58
2023/08/28 14:07:27;;;;;;;151.35;22.85;;;;;;;31.64;41.70;99059.28;5569969;32;33749;-58
2023/08/28 14:10:29;;;;;;;37.55;8.48;;;;;;;31.64;40.18;99054.50;5569639;32;34388;-58
2023/08/28 14:13:32;;;;;;;16.52;5.80;;;;;;;31.68;40.36;99054.34;5569735;32;33874;-58
2023/08/28 14:16:34;;;;;;;430.85;47.80;;;;;;;31.77;39.23;99060.69;5569638;32;33603;-58
2023/08/28 14:19:36;;;;;;;18.90;6.82;;;;;;;31.73;39.61;99064.84;5569738;32;33747;-57
2023/08/28 14:22:40;;;;;;;958.75;139.93;;;;;;;31.69;39.69;99050.34;5569637;32;33664;-58
2023/08/28 14:25:42;;;;;;;137.52;17.65;;;;;;;31.77;41.14;99054.38;5569548;32;33760;-58
2023/08/28 14:28:45;;;;;;;52.90;8.68;;;;;;;31.84;40.15;99062.41;5569350;32;33371;-58
